Time;durP1;ratioP1;P1;durP2;ratioP2;P2;SDS_P1;SDS_P2;PMS_P1;PMS_P2;Temp;Humidity;BMP_temperature;BMP_pressure;BME280_temperature;BME280_humidity;BME280_pressure;Samples;Min_cycle;Max_cycle;Signal;HPM_P1;HPM_P2
2023/09/23 00:03:09;;;;;;;12.77;4.22;;;;;;;;;;10362905;28;20018;-50
2023/09/23 00:08:10;;;;;;;10.65;4.05;;;;;;;;;;10362456;28;20450;-49
2023/09/23 00:13:10;;;;;;;10.32;3.72;;;;;;;;;;10354808;28;20057;-52
2023/09/23 00:18:17;;;;;;;5.63;3.67;;;;;;;;;;10362558;28;20042;-53
2023/09/23 00:23:17;;;;;;;7.60;3.38;;;;;;;;;;10352388;28;20035;-54
2023/09/23 00:28:20;;;;;;;8.07;3.80;;;;;;;;;;10348109;28;20164;-51
2023/09/23 00:33:21;;;;;;;6.55;3.70;;;;;;;;;;10360379;28;20029;-60
2023/09/23 00:38:21;;;;;;;8.25;3.72;;;;;;;;;;10351076;28;20405;-57
2023/09/23 00:43:23;;;;;;;7.53;4.13;;;;;;;;;;10343390;28;20055;-57
2023/09/23 00:48:24;;;;;;;11.15;3.58;;;;;;;;;;10353737;28;20232;-59
2023/09/23 00:53:25;;;;;;;12.45;3.72;;;;;;;;;;10354714;28;20033;-54
2023/09/23 00:58:27;;;;;;;8.63;3.63;;;;;;;;;;10357216;28;20042;-58
2023/09/23 01:03:27;;;;;;;10.32;3.60;;;;;;;;;;10345603;28;20092;-57
2023/09/23 01:08:28;;;;;;;9.02;3.40;;;;;;;;;;10369059;28;20072;-57
2023/09/23 01:13:30;;;;;;;6.28;3.72;;;;;;;;;;10365606;28;20018;-57
2023/09/23 01:18:30;;;;;;;5.70;3.50;;;;;;;;;;10368903;28;20026;-57
2023/09/23 01:23:36;;;;;;;17.38;3.92;;;;;;;;;;10368620;28;20030;-57
2023/09/23 01:28:37;;;;;;;9.50;3.88;;;;;;;;;;10359996;28;20060;-57
2023/09/23 01:33:38;;;;;;;8.40;3.75;;;;;;;;;;10364415;28;20354;-59
2023/09/23 01:38:41;;;;;;;11.45;4.05;;;;;;;;;;10356960;28;20038;-59
2023/09/23 01:43:41;;;;;;;9.63;4.07;;;;;;;;;;10363729;28;20037;-59
2023/09/23 01:48:42;;;;;;;10.63;4.00;;;;;;;;;;10334038;28;20538;-59
2023/09/23 01:53:43;;;;;;;8.82;3.75;;;;;;;;;;10340226;28;20030;-58
2023/09/23 01:58:43;;;;;;;6.90;3.85;;;;;;;;;;10355199;28;20038;-59
2023/09/23 02:03:45;;;;;;;8.60;3.63;;;;;;;;;;10349630;28;20258;-58
2023/09/23 02:08:46;;;;;;;7.03;3.70;;;;;;;;;;10346710;28;20438;-50
2023/09/23 02:13:47;;;;;;;9.40;3.85;;;;;;;;;;10360230;28;20038;-49
2023/09/23 02:18:50;;;;;;;6.45;3.88;;;;;;;;;;10360820;28;20037;-54
2023/09/23 02:23:51;;;;;;;8.65;3.80;;;;;;;;;;10357081;28;20041;-59
2023/09/23 02:28:52;;;;;;;7.97;3.33;;;;;;;;;;10359467;28;20382;-59
2023/09/23 02:33:52;;;;;;;7.68;3.88;;;;;;;;;;10350680;28;20029;-58
2023/09/23 02:38:53;;;;;;;11.30;3.83;;;;;;;;;;10349707;28;20482;-58
2023/09/23 02:43:54;;;;;;;8.40;3.63;;;;;;;;;;10366595;28;20041;-58
2023/09/23 02:48:55;;;;;;;9.65;3.70;;;;;;;;;;10342705;28;20054;-57
2023/09/23 02:53:56;;;;;;;7.80;3.45;;;;;;;;;;10333248;28;20037;-58
2023/09/23 02:58:57;;;;;;;9.25;3.50;;;;;;;;;;10340821;28;20474;-57
2023/09/23 03:04:06;;;;;;;9.77;4.05;;;;;;;;;;10345789;28;20014;-58
2023/09/23 03:09:10;;;;;;;11.05;3.42;;;;;;;;;;10363209;28;20034;-58
2023/09/23 03:14:17;;;;;;;6.63;3.47;;;;;;;;;;10351308;28;20021;-64
2023/09/23 03:19:24;;;;;;;6.53;3.42;;;;;;;;;;10353464;28;20026;-63
2023/09/23 03:24:29;;;;;;;9.70;3.60;;;;;;;;;;10360440;28;20065;-61
2023/09/23 03:29:32;;;;;;;7.72;3.38;;;;;;;;;;10340583;28;20042;-63
2023/09/23 03:34:34;;;;;;;9.18;3.30;;;;;;;;;;10333918;28;20117;-61
2023/09/23 03:39:35;;;;;;;10.80;2.85;;;;;;;;;;10355345;28;20045;-61
2023/09/23 03:44:36;;;;;;;10.52;2.72;;;;;;;;;;10355348;28;20022;-61
2023/09/23 03:49:37;;;;;;;10.93;2.75;;;;;;;;;;10348892;28;20053;-62
2023/09/23 03:54:37;;;;;;;4.55;2.35;;;;;;;;;;10339693;28;20050;-62
2023/09/23 03:59:39;;;;;;;7.15;2.40;;;;;;;;;;10340266;28;20112;-63
2023/09/23 04:04:40;;;;;;;8.10;3.05;;;;;;;;;;10345172;28;20117;-63
2023/09/23 04:09:40;;;;;;;4.70;2.53;;;;;;;;;;10354856;28;20036;-64
2023/09/23 04:14:41;;;;;;;4.85;2.40;;;;;;;;;;10370206;28;20029;-62
2023/09/23 04:19:42;;;;;;;12.30;2.35;;;;;;;;;;10369363;28;20026;-63
2023/09/23 04:24:42;;;;;;;7.13;2.22;;;;;;;;;;10360789;28;20445;-63
2023/09/23 04:29:43;;;;;;;6.57;2.03;;;;;;;;;;10370062;28;20037;-64
2023/09/23 04:34:45;;;;;;;5.22;2.30;;;;;;;;;;10369096;28;20022;-64
2023/09/23 04:39:46;;;;;;;5.80;2.78;;;;;;;;;;10357939;28;20119;-63
2023/09/23 04:44:47;;;;;;;13.52;2.42;;;;;;;;;;10370759;28;20525;-63
2023/09/23 04:49:48;;;;;;;6.65;2.60;;;;;;;;;;10368435;28;20045;-62
2023/09/23 04:54:53;;;;;;;8.45;2.40;;;;;;;;;;10356689;28;20022;-63
2023/09/23 04:59:54;;;;;;;5.80;2.30;;;;;;;;;;10369507;28;20044;-62
2023/09/23 05:04:55;;;;;;;9.68;2.90;;;;;;;;;;10350363;28;20130;-62
2023/09/23 05:09:55;;;;;;;11.35;2.42;;;;;;;;;;10367594;28;20038;-62
2023/09/23 05:14:57;;;;;;;7.93;2.65;;;;;;;;;;10354269;28;20121;-62
2023/09/23 05:19:58;;;;;;;7.50;2.70;;;;;;;;;;10357805;28;20040;-62
2023/09/23 05:24:59;;;;;;;8.40;2.35;;;;;;;;;;10355121;28;20032;-63
2023/09/23 05:29:59;;;;;;;6.45;2.60;;;;;;;;;;10353623;28;20034;-59
2023/09/23 05:35:01;;;;;;;7.55;2.35;;;;;;;;;;10361465;28;20473;-62
2023/09/23 05:40:08;;;;;;;8.32;2.15;;;;;;;;;;10345534;28;20026;-62
2023/09/23 05:45:10;;;;;;;8.30;2.30;;;;;;;;;;10356861;28;20025;-61
2023/09/23 05:50:11;;;;;;;7.78;2.45;;;;;;;;;;10346733;28;20053;-60
2023/09/23 05:55:13;;;;;;;8.85;2.05;;;;;;;;;;10346595;28;20032;-62
2023/09/23 06:00:15;;;;;;;3.15;2.00;;;;;;;;;;10340671;28;20486;-62
2023/09/23 06:05:16;;;;;;;4.60;2.55;;;;;;;;;;10342512;28;20034;-58
2023/09/23 06:10:18;;;;;;;4.25;2.20;;;;;;;;;;10351117;28;20034;-57
2023/09/23 06:15:19;;;;;;;9.55;2.65;;;;;;;;;;10335348;28;20022;-58
2023/09/23 06:20:20;;;;;;;22.52;2.30;;;;;;;;;;10349034;28;20026;-57
2023/09/23 06:25:20;;;;;;;8.80;2.95;;;;;;;;;;10341581;28;20129;-58
2023/09/23 06:30:21;;;;;;;14.60;2.22;;;;;;;;;;10333773;28;20510;-58
2023/09/23 06:35:22;;;;;;;8.43;2.08;;;;;;;;;;10353416;28;20474;-60
2023/09/23 06:40:22;;;;;;;12.35;2.47;;;;;;;;;;10359718;28;20030;-59
2023/09/23 06:45:23;;;;;;;12.23;2.50;;;;;;;;;;10360894;28;20080;-60
2023/09/23 06:50:23;;;;;;;16.83;2.65;;;;;;;;;;10360619;28;20525;-60
2023/09/23 06:55:24;;;;;;;11.18;2.13;;;;;;;;;;10363174;28;20846;-57
2023/09/23 07:00:25;;;;;;;6.03;2.42;;;;;;;;;;10358755;28;20529;-57
2023/09/23 07:05:26;;;;;;;10.90;2.10;;;;;;;;;;10350412;28;20065;-58
2023/09/23 07:10:27;;;;;;;10.93;2.55;;;;;;;;;;10362830;28;20411;-59
2023/09/23 07:15:28;;;;;;;3.17;1.80;;;;;;;;;;10342165;28;20041;-59
2023/09/23 07:20:29;;;;;;;10.52;2.25;;;;;;;;;;10347403;28;20030;-58
2023/09/23 07:25:29;;;;;;;10.88;2.63;;;;;;;;;;10341098;28;20447;-62
2023/09/23 07:30:33;;;;;;;6.68;2.25;;;;;;;;;;10340136;28;20095;-58
2023/09/23 07:35:35;;;;;;;6.07;2.17;;;;;;;;;;10348851;28;20065;-57
2023/09/23 07:40:39;;;;;;;10.10;2.20;;;;;;;;;;10340061;28;20038;-62
2023/09/23 07:45:40;;;;;;;5.57;2.15;;;;;;;;;;10345988;28;20451;-61
2023/09/23 07:50:41;;;;;;;8.73;2.63;;;;;;;;;;10345087;28;20100;-60
2023/09/23 07:55:43;;;;;;;9.18;2.70;;;;;;;;;;10341902;28;20068;-62
2023/09/23 08:00:44;;;;;;;17.17;2.70;;;;;;;;;;10335223;28;20494;-58
2023/09/23 08:05:44;;;;;;;13.63;2.85;;;;;;;;;;10347933;28;20023;-58
2023/09/23 08:10:45;;;;;;;11.70;3.00;;;;;;;;;;10342170;28;20034;-58
2023/09/23 08:15:46;;;;;;;12.85;2.92;;;;;;;;;;10342469;28;20038;-59
2023/09/23 08:20:47;;;;;;;18.73;3.03;;;;;;;;;;10354215;28;20034;-58
2023/09/23 08:25:48;;;;;;;9.32;2.92;;;;;;;;;;10340419;28;20034;-58
2023/09/23 08:30:50;;;;;;;4.45;2.95;;;;;;;;;;10352768;28;20030;-58
2023/09/23 08:35:51;;;;;;;6.88;3.20;;;;;;;;;;10362829;28;20478;-58
2023/09/23 08:40:52;;;;;;;8.65;2.88;;;;;;;;;;10349757;28;20128;-58
2023/09/23 08:45:56;;;;;;;7.65;3.03;;;;;;;;;;10343147;28;20042;-57
2023/09/23 08:50:58;;;;;;;11.68;2.88;;;;;;;;;;10350820;28;20030;-60
2023/09/23 08:56:02;;;;;;;9.80;2.70;;;;;;;;;;10359705;28;20028;-57
2023/09/23 09:01:03;;;;;;;11.10;2.88;;;;;;;;;;10360590;28;20113;-60
2023/09/23 09:06:14;;;;;;;4.97;2.50;;;;;;;;;;10353193;28;20474;-59
2023/09/23 09:11:23;;;;;;;7.88;2.72;;;;;;;;;;10356542;28;20022;-59
2023/09/23 09:16:25;;;;;;;4.07;2.88;;;;;;;;;;10355455;28;20382;-59
2023/09/23 09:21:26;;;;;;;16.67;3.67;;;;;;;;;;10366898;28;20087;-59
2023/09/23 09:26:27;;;;;;;4.85;2.72;;;;;;;;;;10365365;28;20042;-60
2023/09/23 09:31:34;;;;;;;9.75;2.78;;;;;;;;;;10366163;28;20037;-59
2023/09/23 09:36:38;;;;;;;8.38;2.97;;;;;;;;;;10358651;28;20195;-62
2023/09/23 09:41:53;;;;;;;8.32;3.00;;;;;;;;;;10323632;28;20065;-62
2023/09/23 09:46:56;;;;;;;6.57;2.90;;;;;;;;;;10293267;28;20138;-62
2023/09/23 09:51:58;;;;;;;15.95;3.22;;;;;;;;;;10307809;28;20062;-58
2023/09/23 09:56:59;;;;;;;9.25;2.92;;;;;;;;;;10306891;28;20462;-60
2023/09/23 10:02:00;;;;;;;7.80;2.95;;;;;;;;;;10311442;28;20050;-61
2023/09/23 10:07:07;;;;;;;5.57;2.88;;;;;;;;;;10304688;28;20026;-58
2023/09/23 10:12:07;;;;;;;5.68;2.72;;;;;;;;;;10317993;28;20034;-59
2023/09/23 10:17:09;;;;;;;4.45;2.35;;;;;;;;;;10326498;28;20445;-59
2023/09/23 10:22:20;;;;;;;5.95;2.83;;;;;;;;;;10325196;28;20080;-58
2023/09/23 10:27:24;;;;;;;4.22;2.60;;;;;;;;;;10310250;28;20031;-58
2023/09/23 10:32:24;;;;;;;5.32;2.53;;;;;;;;;;10320197;28;20439;-60
2023/09/23 10:37:34;;;;;;;3.40;2.40;;;;;;;;;;10312137;28;20022;-59
2023/09/23 10:42:35;;;;;;;3.50;2.38;;;;;;;;;;10315106;28;20128;-59
2023/09/23 10:47:36;;;;;;;4.90;2.30;;;;;;;;;;10272762;28;20045;-61
2023/09/23 10:52:37;;;;;;;5.88;2.13;;;;;;;;;;10313641;28;20035;-62
2023/09/23 10:57:38;;;;;;;4.55;2.47;;;;;;;;;;10302023;28;20035;-59
2023/09/23 11:02:44;;;;;;;3.47;2.35;;;;;;;;;;10305418;28;20271;-59
2023/09/23 11:07:44;;;;;;;7.45;2.30;;;;;;;;;;10322589;28;20034;-62
2023/09/23 11:12:47;;;;;;;3.80;2.17;;;;;;;;;;10306535;28;20437;-64
2023/09/23 11:17:47;;;;;;;3.28;2.17;;;;;;;;;;10315200;28;20216;-60
2023/09/23 11:22:50;;;;;;;6.65;2.55;;;;;;;;;;10306222;28;20170;-58
2023/09/23 11:27:51;;;;;;;5.45;2.67;;;;;;;;;;10318945;28;20102;-59
2023/09/23 11:32:53;;;;;;;5.50;2.17;;;;;;;;;;10319526;28;20031;-59
2023/09/23 11:37:54;;;;;;;7.30;2.65;;;;;;;;;;10315932;28;20526;-58
2023/09/23 11:42:55;;;;;;;8.07;3.13;;;;;;;;;;10309412;28;20034;-59
2023/09/23 11:47:56;;;;;;;11.35;3.60;;;;;;;;;;10306636;28;20050;-59
2023/09/23 11:52:57;;;;;;;9.50;3.13;;;;;;;;;;10301900;28;20492;-59
2023/09/23 11:57:58;;;;;;;5.15;2.63;;;;;;;;;;10310373;28;20092;-59
2023/09/23 12:02:59;;;;;;;7.95;3.22;;;;;;;;;;10303558;28;20030;-59
2023/09/23 12:08:00;;;;;;;8.35;2.85;;;;;;;;;;10298119;28;20388;-59
2023/09/23 12:13:05;;;;;;;11.90;3.25;;;;;;;;;;10297036;28;20141;-60
2023/09/23 12:18:06;;;;;;;11.52;3.08;;;;;;;;;;10304836;28;20038;-58
2023/09/23 12:23:07;;;;;;;6.88;2.45;;;;;;;;;;10307961;28;20529;-60
2023/09/23 12:28:08;;;;;;;6.95;2.50;;;;;;;;;;10351250;28;20056;-60
2023/09/23 12:33:09;;;;;;;8.20;3.08;;;;;;;;;;10358543;28;20025;-58
2023/09/23 12:38:10;;;;;;;6.97;2.83;;;;;;;;;;10358957;28;20037;-61
2023/09/23 12:43:11;;;;;;;5.10;2.30;;;;;;;;;;10358197;28;20026;-60
2023/09/23 12:48:11;;;;;;;11.80;2.65;;;;;;;;;;10354268;28;20046;-59
2023/09/23 12:53:12;;;;;;;3.63;2.47;;;;;;;;;;10342877;28;20030;-59
2023/09/23 12:58:14;;;;;;;7.47;2.83;;;;;;;;;;10344881;28;20105;-59
2023/09/23 13:03:15;;;;;;;16.98;3.13;;;;;;;;;;10347684;28;20030;-59
2023/09/23 13:08:15;;;;;;;9.15;2.50;;;;;;;;;;10357610;28;20501;-59
2023/09/23 13:13:16;;;;;;;9.60;3.45;;;;;;;;;;10356978;28;20042;-60
2023/09/23 13:18:17;;;;;;;4.95;2.67;;;;;;;;;;10361268;28;20049;-60
2023/09/23 13:23:18;;;;;;;11.55;2.95;;;;;;;;;;10366006;28;20026;-60
2023/09/23 13:28:18;;;;;;;15.50;3.15;;;;;;;;;;10365844;28;20037;-59
2023/09/23 13:33:22;;;;;;;17.83;3.30;;;;;;;;;;10365025;28;20029;-59
2023/09/23 13:38:22;;;;;;;7.47;3.08;;;;;;;;;;10365979;28;20124;-59
2023/09/23 13:43:24;;;;;;;6.00;2.67;;;;;;;;;;10342527;28;20026;-60
2023/09/23 13:48:25;;;;;;;6.88;2.63;;;;;;;;;;10340085;28;20053;-60
2023/09/23 13:53:26;;;;;;;8.48;2.67;;;;;;;;;;10335519;28;20379;-60
2023/09/23 13:58:26;;;;;;;10.40;3.45;;;;;;;;;;10341748;28;20026;-60
2023/09/23 14:03:27;;;;;;;11.45;2.97;;;;;;;;;;10336526;28;20370;-59
2023/09/23 14:08:28;;;;;;;4.80;2.70;;;;;;;;;;10366887;28;20018;-59
2023/09/23 14:13:28;;;;;;;14.75;2.63;;;;;;;;;;10357871;28;20164;-60
2023/09/23 14:18:29;;;;;;;5.75;2.33;;;;;;;;;;10347382;28;20021;-60
2023/09/23 14:23:30;;;;;;;9.00;3.05;;;;;;;;;;10348721;28;20057;-60
2023/09/23 14:28:31;;;;;;;9.18;2.65;;;;;;;;;;10344437;28;20227;-59
2023/09/23 14:33:31;;;;;;;11.30;3.42;;;;;;;;;;10349146;28;20034;-60
2023/09/23 14:38:32;;;;;;;8.05;2.63;;;;;;;;;;10356973;28;20040;-59
2023/09/23 14:43:33;;;;;;;7.75;2.58;;;;;;;;;;10350505;28;20070;-60
2023/09/23 14:48:33;;;;;;;6.65;2.58;;;;;;;;;;10344750;28;20050;-61
2023/09/23 14:53:34;;;;;;;5.55;2.47;;;;;;;;;;10348035;28;20436;-62
2023/09/23 14:58:35;;;;;;;5.90;2.50;;;;;;;;;;10343510;28;20030;-60
2023/09/23 15:03:35;;;;;;;10.80;2.83;;;;;;;;;;10346007;28;20385;-59
2023/09/23 15:08:36;;;;;;;13.35;2.58;;;;;;;;;;10349971;28;20108;-59
2023/09/23 15:13:38;;;;;;;4.13;2.50;;;;;;;;;;10360273;28;20041;-59
2023/09/23 15:18:39;;;;;;;5.32;2.33;;;;;;;;;;10360234;28;20034;-60
2023/09/23 15:23:40;;;;;;;6.75;2.22;;;;;;;;;;10364559;28;20031;-57
2023/09/23 15:28:41;;;;;;;20.13;2.97;;;;;;;;;;10361861;28;20061;-58
2023/09/23 15:33:42;;;;;;;7.38;2.50;;;;;;;;;;10353726;28;20022;-58
2023/09/23 15:38:42;;;;;;;4.13;2.13;;;;;;;;;;10342576;28;20084;-57
2023/09/23 15:43:43;;;;;;;5.20;2.47;;;;;;;;;;10334767;28;20366;-57
2023/09/23 15:48:44;;;;;;;5.60;2.50;;;;;;;;;;10356770;28;20088;-58
2023/09/23 15:53:45;;;;;;;4.70;2.05;;;;;;;;;;10329948;28;20589;-57
2023/09/23 15:58:45;;;;;;;5.85;2.28;;;;;;;;;;10353780;28;20093;-60
2023/09/23 16:03:46;;;;;;;8.48;2.22;;;;;;;;;;10353521;28;20025;-59
2023/09/23 16:08:46;;;;;;;8.65;1.80;;;;;;;;;;10365078;28;20221;-60
2023/09/23 16:13:47;;;;;;;7.13;2.05;;;;;;;;;;10363864;28;20084;-63
2023/09/23 16:18:48;;;;;;;5.18;2.22;;;;;;;;;;10364541;28;20026;-58
2023/09/23 16:23:49;;;;;;;5.00;2.17;;;;;;;;;;10355351;28;20501;-57
2023/09/23 16:28:49;;;;;;;10.82;2.40;;;;;;;;;;10353255;28;20027;-58
2023/09/23 16:33:50;;;;;;;8.15;2.28;;;;;;;;;;10365225;28;20030;-57
2023/09/23 16:38:50;;;;;;;4.22;1.73;;;;;;;;;;10360591;28;20433;-57
2023/09/23 16:43:51;;;;;;;6.75;1.98;;;;;;;;;;10363640;28;20033;-58
2023/09/23 16:48:52;;;;;;;3.85;1.90;;;;;;;;;;10376790;28;20125;-57
2023/09/23 16:53:57;;;;;;;6.65;2.05;;;;;;;;;;10376255;28;20030;-58
2023/09/23 16:58:58;;;;;;;8.32;2.10;;;;;;;;;;10361548;28;20041;-58
2023/09/23 17:03:59;;;;;;;4.75;2.00;;;;;;;;;;10348494;28;20041;-58
2023/09/23 17:09:00;;;;;;;6.93;2.28;;;;;;;;;;10362944;28;20082;-58
2023/09/23 17:14:01;;;;;;;4.45;1.90;;;;;;;;;;10359769;28;20367;-58
2023/09/23 17:19:02;;;;;;;4.05;1.77;;;;;;;;;;10367424;28;20029;-58
2023/09/23 17:24:03;;;;;;;3.45;1.70;;;;;;;;;;10361672;28;20117;-58
2023/09/23 17:29:06;;;;;;;8.68;1.88;;;;;;;;;;10347176;28;20034;-58
2023/09/23 17:34:06;;;;;;;7.57;2.00;;;;;;;;;;10361787;28;20061;-58
2023/09/23 17:39:07;;;;;;;3.63;1.60;;;;;;;;;;10356046;28;20547;-58
2023/09/23 17:44:09;;;;;;;5.45;1.83;;;;;;;;;;10336737;28;20033;-60
2023/09/23 17:49:09;;;;;;;2.95;1.60;;;;;;;;;;10344728;28;20414;-60
2023/09/23 17:54:10;;;;;;;4.38;1.70;;;;;;;;;;10367774;28;20041;-59
2023/09/23 17:59:11;;;;;;;5.45;1.63;;;;;;;;;;10343995;28;20411;-57
2023/09/23 18:04:12;;;;;;;3.42;1.40;;;;;;;;;;10353909;28;20108;-59
2023/09/23 18:09:13;;;;;;;4.28;1.83;;;;;;;;;;10364886;28;20176;-60
2023/09/23 18:14:13;;;;;;;5.80;2.10;;;;;;;;;;10345147;28;20041;-60
2023/09/23 18:19:14;;;;;;;2.80;1.75;;;;;;;;;;10345149;28;20041;-59
2023/09/23 18:24:14;;;;;;;2.88;1.60;;;;;;;;;;10366080;28;20058;-60
2023/09/23 18:29:15;;;;;;;1.73;1.33;;;;;;;;;;10357712;28;20426;-59
2023/09/23 18:34:16;;;;;;;14.10;1.90;;;;;;;;;;10340955;28;20054;-58
2023/09/23 18:39:17;;;;;;;5.85;1.80;;;;;;;;;;10345833;28;20097;-60
2023/09/23 18:44:17;;;;;;;5.95;1.80;;;;;;;;;;10360745;28;20034;-60
2023/09/23 18:49:18;;;;;;;3.33;1.80;;;;;;;;;;10359338;28;20100;-60
2023/09/23 18:54:19;;;;;;;2.65;1.67;;;;;;;;;;10363891;28;20033;-57
2023/09/23 18:59:19;;;;;;;4.28;2.03;;;;;;;;;;10362835;28;20037;-60
2023/09/23 19:04:25;;;;;;;5.15;2.03;;;;;;;;;;10351714;28;20537;-59
2023/09/23 19:09:26;;;;;;;5.05;1.83;;;;;;;;;;10355537;28;20038;-57
2023/09/23 19:14:26;;;;;;;5.72;1.85;;;;;;;;;;10352863;28;20058;-58
2023/09/23 19:19:27;;;;;;;5.75;1.80;;;;;;;;;;10355011;28;20389;-57
2023/09/23 19:24:28;;;;;;;5.03;1.85;;;;;;;;;;10351227;28;20535;-57
2023/09/23 19:29:29;;;;;;;2.40;1.45;;;;;;;;;;10363773;28;20026;-57
2023/09/23 19:34:29;;;;;;;3.20;1.48;;;;;;;;;;10347756;28;20033;-57
2023/09/23 19:39:36;;;;;;;5.35;1.70;;;;;;;;;;10353588;28;20037;-58
2023/09/23 19:44:36;;;;;;;2.38;1.50;;;;;;;;;;10336907;28;20422;-58
2023/09/23 19:49:37;;;;;;;2.45;1.48;;;;;;;;;;10336438;28;20112;-57
2023/09/23 19:54:37;;;;;;;2.03;1.25;;;;;;;;;;10334124;28;20026;-57
2023/09/23 19:59:38;;;;;;;7.55;2.05;;;;;;;;;;10346151;28;20034;-58
2023/09/23 20:04:41;;;;;;;1.90;1.60;;;;;;;;;;10340913;28;20571;-58
2023/09/23 20:09:42;;;;;;;1.92;1.23;;;;;;;;;;10352695;28;20068;-57
2023/09/23 20:14:42;;;;;;;2.50;1.52;;;;;;;;;;10356930;28;20041;-58
2023/09/23 20:19:43;;;;;;;4.15;1.67;;;;;;;;;;10349717;28;20037;-57
2023/09/23 20:24:44;;;;;;;3.47;1.58;;;;;;;;;;10349235;28;20036;-58
2023/09/23 20:29:46;;;;;;;2.65;1.65;;;;;;;;;;10357803;28;20038;-57
2023/09/23 20:34:46;;;;;;;2.28;1.42;;;;;;;;;;10357513;28;20421;-57
2023/09/23 20:39:50;;;;;;;13.18;1.60;;;;;;;;;;10355891;28;20302;-56
2023/09/23 20:44:51;;;;;;;2.95;1.73;;;;;;;;;;10345067;28;20037;-63
2023/09/23 20:49:52;;;;;;;4.03;1.42;;;;;;;;;;10333619;28;20042;-63
2023/09/23 20:54:53;;;;;;;6.22;1.67;;;;;;;;;;10345852;28;20033;-64
2023/09/23 20:59:53;;;;;;;3.72;1.40;;;;;;;;;;10342335;28;20034;-64
2023/09/23 21:04:54;;;;;;;12.65;1.67;;;;;;;;;;10341117;28;20027;-64
2023/09/23 21:09:55;;;;;;;1.92;1.55;;;;;;;;;;10348140;28;20117;-64
2023/09/23 21:14:56;;;;;;;9.50;1.83;;;;;;;;;;10349833;28;20065;-64
2023/09/23 21:19:56;;;;;;;27.13;2.28;;;;;;;;;;10345179;28;20584;-60
2023/09/23 21:24:57;;;;;;;4.35;1.52;;;;;;;;;;10350794;28;20101;-63
2023/09/23 21:29:58;;;;;;;20.02;2.22;;;;;;;;;;10352212;28;20478;-62
2023/09/23 21:34:59;;;;;;;13.13;1.48;;;;;;;;;;10355620;28;20037;-61
2023/09/23 21:40:00;;;;;;;10.55;1.83;;;;;;;;;;10357902;28;20494;-61
2023/09/23 21:45:01;;;;;;;3.28;1.52;;;;;;;;;;10355289;28;20018;-62
2023/09/23 21:50:01;;;;;;;5.50;1.73;;;;;;;;;;10347986;28;20474;-62
2023/09/23 21:55:05;;;;;;;4.95;1.58;;;;;;;;;;10350623;28;20073;-62
2023/09/23 22:00:26;;;;;;;13.90;1.90;;;;;;;;;;10351561;28;20355;-62
2023/09/23 22:05:28;;;;;;;6.72;2.03;;;;;;;;;;10347725;28;20088;-61
2023/09/23 22:10:30;;;;;;;7.20;1.52;;;;;;;;;;10345802;28;20117;-61
2023/09/23 22:15:30;;;;;;;7.63;1.58;;;;;;;;;;10360104;28;20026;-62
2023/09/23 22:20:31;;;;;;;3.50;1.25;;;;;;;;;;10352556;28;20033;-61
2023/09/23 22:25:32;;;;;;;6.93;1.52;;;;;;;;;;10365995;28;20370;-60
2023/09/23 22:30:33;;;;;;;4.00;1.60;;;;;;;;;;10343006;28;20133;-60
2023/09/23 22:35:33;;;;;;;5.22;1.50;;;;;;;;;;10352178;28;20025;-60
2023/09/23 22:40:34;;;;;;;4.30;1.58;;;;;;;;;;10362649;28;20046;-60
2023/09/23 22:45:35;;;;;;;4.93;1.35;;;;;;;;;;10365613;28;20029;-60
2023/09/23 22:50:35;;;;;;;2.53;1.45;;;;;;;;;;10364891;28;20030;-60
2023/09/23 22:55:37;;;;;;;3.17;1.42;;;;;;;;;;10353413;28;20417;-61
2023/09/23 23:00:39;;;;;;;2.22;1.33;;;;;;;;;;10367683;28;20571;-60
2023/09/23 23:05:40;;;;;;;5.22;1.40;;;;;;;;;;10345852;28;20034;-60
2023/09/23 23:10:40;;;;;;;2.72;1.42;;;;;;;;;;10356668;28;20034;-60
2023/09/23 23:15:41;;;;;;;3.20;1.42;;;;;;;;;;10342737;28;20046;-59
2023/09/23 23:20:43;;;;;;;2.67;1.42;;;;;;;;;;10362597;28;20032;-61
2023/09/23 23:25:44;;;;;;;2.35;1.60;;;;;;;;;;10354219;28;20436;-60
2023/09/23 23:30:45;;;;;;;4.15;1.55;;;;;;;;;;10360997;28;20056;-60
2023/09/23 23:35:45;;;;;;;2.53;1.50;;;;;;;;;;10360034;28;20551;-59
2023/09/23 23:40:46;;;;;;;2.30;1.23;;;;;;;;;;10359173;28;20033;-61
2023/09/23 23:45:48;;;;;;;3.45;1.27;;;;;;;;;;10350053;28;20022;-60
2023/09/23 23:50:50;;;;;;;4.28;1.35;;;;;;;;;;10363247;28;20037;-60
2023/09/23 23:55:50;;;;;;;1.95;1.30;;;;;;;;;;10346205;28;20025;-60
